Latest Weather Observations for Mount Gambier

IDS60801

Issued at 11:32 am CDT Tuesday 27 January 2015 (issued every 30 minutes, with the page automatically refreshed every 10 minutes)

About weather observations | Map of weather stations | Latest weather observations for SA | Other Formats
Station Details ID: 026021 Name: MOUNT GAMBIER AERO Lat: -37.75 Lon: 140.77 Height: 63.0 m
Data from the previous 72 hours. | See also: Recent months at Mount Gambier
Date/Time
CDT
Temp
°C
App
Temp
°C
Dew
Point
Rel
Hum
%
Delta-T
°C
Wind Press
QNH
hPa
Press
MSL
hPa
Rain
since 9 am
mm
Dir
 
Spd
km/h
Gust
km/h
Spd
kts
Gust
kts
27/11:00am 17.3 12.4 5.0 44 5.9 S 20 30 11 16 1019.4 - 0.0
27/10:30am 16.8 11.7 3.9 42 6.0 S 20 28 11 15 1019.5 - 0.0
27/10:00am 16.3 10.8 4.1 44 5.7 S 22 30 12 16 1019.5 - 0.0
27/09:30am 17.7 11.4 5.5 44 5.9 S 28 33 15 18 1019.5 - 0.0
27/09:00am 15.7 10.2 5.7 51 4.8 S 24 32 13 17 1019.4 1019.3 0.0
27/07:30am 11.8 10.3 8.4 80 1.7 S 6 9 3 5 1018.7 - 0.0
27/06:30am 10.1 9.6 8.0 87 1.0 CALM 0 0 0 0 1018.2 - 0.0
27/06:00am 9.8 9.3 7.9 88 0.9 CALM 0 0 0 0 1018.1 1018.0 0.0
27/05:30am 9.3 8.7 7.6 89 0.8 CALM 0 0 0 0 1017.8 - 0.0
27/05:00am 8.9 8.2 7.0 88 0.9 CALM 0 0 0 0 1017.7 - 0.0
27/04:30am 8.1 7.3 6.6 90 0.7 CALM 0 0 0 0 1017.8 - 0.0
27/04:00am 6.9 5.9 5.6 91 0.6 CALM 0 0 0 0 1017.8 - 0.0
27/03:30am 6.5 4.1 5.1 91 0.6 WNW 7 9 4 5 1018.0 - 0.0
27/03:00am 6.5 5.4 5.1 91 0.6 CALM 0 0 0 0 1018.2 1018.1 0.0
27/02:30am 6.5 4.0 4.9 89 0.7 WNW 7 7 4 4 1018.2 - 0.0
27/02:00am 6.5 4.1 5.1 91 0.6 W 7 7 4 4 1018.3 - 0.0
27/01:30am 6.8 4.3 4.7 86 0.9 WNW 7 9 4 5 1018.4 - 0.0
27/01:00am 7.4 5.2 5.4 87 0.9 WNW 6 7 3 4 1018.5 - 0.0
27/12:30am 7.7 5.5 5.5 86 1.0 W 6 7 3 4 1018.7 - 0.0
27/12:00am 8.7 6.5 6.3 85 1.1 SW 7 7 4 4 1018.9 1018.8 0.0
 
Date/Time
CDT
Temp
°C
App
Temp
°C
Dew
Point
Rel
Hum
%
Delta-T
°C
Wind Press
QNH
hPa
Press
MSL
hPa
Rain
since 9 am
mm
Dir
 
Spd
km/h
Gust
km/h
Spd
kts
Gust
kts
26/11:30pm 9.3 6.7 6.0 80 1.5 S 9 11 5 6 1018.9 - 0.0
26/11:00pm 9.6 7.0 6.1 79 1.6 S 9 11 5 6 1019.0 - 0.0
26/10:30pm 10.1 7.1 6.2 77 1.8 S 11 11 6 6 1019.2 - 0.0
26/10:00pm 10.6 7.7 6.6 76 1.9 SSW 11 11 6 6 1019.5 - 0.0
26/09:30pm 11.3 8.0 6.2 71 2.4 S 13 13 7 7 1019.4 - 0.0
26/09:00pm 12.3 8.9 5.9 65 3.0 S 13 17 7 9 1019.2 1019.1 0.0
26/08:30pm 13.3 9.0 5.4 59 3.7 S 17 24 9 13 1019.0 - 0.0
26/08:00pm 14.3 8.3 5.1 54 4.3 S 26 30 14 16 1018.7 - 0.0
26/07:30pm 15.3 9.3 5.4 51 4.7 S 26 33 14 18 1018.3 - 0.0
26/07:00pm 16.3 10.3 5.5 48 5.2 S 26 33 14 18 1018.0 - 0.0
26/06:30pm 16.6 10.2 5.1 46 5.5 S 28 37 15 20 1017.7 - 0.0
26/06:00pm 15.5 9.2 5.7 52 4.7 S 28 33 15 18 1017.4 1017.3 0.0
26/05:30pm 17.1 10.4 5.8 47 5.5 SSE 30 35 16 19 1017.4 - 0.0
26/05:00pm 18.6 12.2 5.2 41 6.5 S 28 32 15 17 1017.3 - 0.0
26/04:30pm 18.9 12.5 5.4 41 6.6 S 28 39 15 21 1017.5 - 0.0
26/04:00pm 18.9 12.1 5.1 40 6.7 S 30 37 16 20 1017.5 - 0.0
26/03:30pm 18.4 11.9 4.9 41 6.5 S 28 39 15 21 1017.6 - 0.0
26/03:00pm 18.3 11.8 4.8 41 6.5 S 28 37 15 20 1017.7 1017.6 0.0
26/02:30pm 18.2 11.5 5.5 43 6.2 SSW 30 41 16 22 1017.5 - 0.0
26/02:05pm 17.8 11.4 5.4 44 6.0 S 28 33 15 18 1017.7 - 0.0
26/01:00pm 16.4 12.0 4.8 46 5.5 S 17 26 9 14 1018.1 - 0.0
26/12:30pm 16.4 12.9 5.3 47 5.3 S 13 24 7 13 1018.2 - 0.0
26/12:00pm 16.9 11.8 5.8 48 5.4 S 22 28 12 15 1018.3 1018.2 0.0
26/11:30am 18.3 14.0 5.3 42 6.3 SSE 17 24 9 13 1018.4 - 0.0
26/11:00am 16.3 12.5 4.1 44 5.7 SW 13 19 7 10 1018.6 - 0.0
26/10:30am 16.4 13.3 5.6 49 5.2 S 11 17 6 9 1018.6 - 0.0
26/10:00am 15.3 12.4 6.5 55 4.3 SW 11 20 6 11 1018.9 - 0.0
26/09:30am 14.5 11.6 6.7 59 3.8 WSW 11 15 6 8 1018.7 - 0.0
26/09:00am 13.6 11.5 8.2 70 2.7 WSW 9 11 5 6 1018.7 1018.6 0.2
26/08:30am 13.0 11.4 8.8 75 2.1 WSW 7 11 4 6 1018.3 - 0.2
26/08:00am 11.6 10.0 8.6 82 1.5 WNW 7 9 4 5 1018.0 - 0.2
26/07:30am 9.1 7.4 8.3 95 0.4 NW 7 9 4 5 1017.6 - 0.2
26/07:00am 7.1 4.9 6.4 95 0.3 NW 7 7 4 4 1017.2 - 0.2
26/06:30am 6.3 3.7 5.9 97 0.2 NW 9 9 5 5 1016.9 - 0.2
26/06:00am 6.7 4.5 6.3 97 0.2 NW 7 9 4 5 1016.6 1016.5 0.2
26/05:30am 7.0 4.8 6.3 95 0.3 WNW 7 9 4 5 1016.2 - 0.2
26/05:00am 7.6 5.8 7.0 96 0.3 W 6 7 3 4 1015.8 - 0.2
26/04:30am 8.2 6.2 7.3 94 0.4 W 7 9 4 5 1015.5 - 0.2
26/04:00am 8.6 6.4 7.8 95 0.4 WSW 9 9 5 5 1015.4 - 0.2
26/03:30am 7.7 5.3 7.1 96 0.3 WNW 9 9 5 5 1015.3 - 0.2
26/03:00am 8.2 5.9 7.3 94 0.4 WNW 9 11 5 6 1015.4 1015.3 0.2
26/02:30am 9.2 7.1 8.2 93 0.5 WNW 9 11 5 6 1015.3 - 0.2
26/02:00am 9.3 7.6 8.5 95 0.4 WNW 7 9 4 5 1015.2 - 0.2
26/01:30am 9.9 7.6 8.9 93 0.5 NW 11 11 6 6 1015.2 - 0.2
26/01:00am 10.7 8.0 8.9 89 0.9 WNW 13 17 7 9 1015.3 - 0.2
26/12:30am 10.6 8.6 8.6 87 1.0 W 9 11 5 6 1015.2 - 0.0
26/12:00am 10.7 8.8 8.9 89 0.9 SSW 9 11 5 6 1015.0 1014.9 0.0
 
Date/Time
CDT
Temp
°C
App
Temp
°C
Dew
Point
Rel
Hum
%
Delta-T
°C
Wind Press
QNH
hPa
Press
MSL
hPa
Rain
since 9 am
mm
Dir
 
Spd
km/h
Gust
km/h
Spd
kts
Gust
kts
25/11:30pm 10.5 8.7 9.3 92 0.6 WNW 9 11 5 6 1015.1 - 0.0
25/11:00pm 10.8 9.0 9.4 91 0.7 W 9 9 5 5 1014.9 - 0.0
25/10:30pm 11.2 9.0 9.4 89 0.9 W 11 13 6 7 1015.0 - 0.0
25/10:00pm 11.9 9.6 8.9 82 1.5 WSW 11 13 6 7 1014.9 - 0.0
25/09:30pm 11.3 8.9 8.7 84 1.3 WSW 11 15 6 8 1014.6 - 0.0
25/09:00pm 11.1 9.0 8.2 82 1.4 WNW 9 11 5 6 1014.2 1014.0 0.0
25/08:30pm 13.3 8.6 5.9 61 3.5 SW 20 30 11 16 1014.1 - 0.0
25/08:00pm 13.6 9.3 6.8 63 3.3 SW 19 28 10 15 1013.8 - 0.0
25/07:30pm 14.5 9.0 5.7 55 4.2 WSW 24 33 13 18 1013.5 - 0.0
25/07:00pm 14.0 10.2 8.9 71 2.6 W 19 26 10 14 1013.3 - 0.0
25/06:30pm 15.1 9.6 6.0 54 4.4 SW 24 37 13 20 1013.1 - 0.0
25/06:00pm 15.6 10.1 6.1 53 4.6 WSW 24 33 13 18 1012.8 1012.6 0.0
25/05:30pm 16.0 9.0 4.0 44 5.6 WSW 30 39 16 21 1012.8 - 0.0
25/05:00pm 15.2 8.1 5.6 52 4.6 WSW 32 44 17 24 1012.8 - 0.0
25/04:39pm 15.2 7.2 5.8 53 4.5 WSW 37 56 20 30 1012.6 - 0.0
25/04:30pm 17.3 9.3 3.6 40 6.4 W 35 48 19 26 1012.4 - 0.0
25/04:00pm 14.5 7.0 9.5 72 2.6 WSW 39 50 21 27 1012.6 - 0.0
25/03:30pm 16.9 8.3 4.4 43 5.9 W 39 52 21 28 1012.2 - 0.0
25/03:00pm 16.8 8.3 5.1 46 5.6 WSW 39 52 21 28 1012.1 1011.9 0.0
25/02:30pm 18.1 10.0 5.1 42 6.3 W 37 50 20 27 1011.9 - 0.0
25/02:15pm 17.7 9.6 5.3 44 6.0 W 37 54 20 29 1012.0 - 0.0
25/02:00pm 17.4 9.5 6.2 47 5.5 SW 37 50 20 27 1012.0 - 0.0
25/01:56pm 17.5 9.6 6.4 48 5.5 SW 37 50 20 27 1012.0 - 0.0
25/01:30pm 17.3 10.0 5.6 46 5.7 W 33 43 18 23 1011.9 - 0.0
25/01:10pm 15.8 8.1 7.1 56 4.3 W 37 50 20 27 1012.1 - 0.0
25/01:00pm 16.1 7.8 4.4 45 5.5 WSW 37 50 20 27 1011.8 - 0.0
25/12:30pm 17.4 7.9 3.7 40 6.4 W 43 59 23 32 1011.8 - 0.0
25/12:05pm 16.1 9.0 5.5 49 5.1 W 32 50 17 27 1011.6 - 0.0
25/12:00pm 16.6 9.2 4.8 45 5.6 W 33 48 18 26 1011.6 1011.4 0.0
25/11:41am 16.2 8.7 4.3 45 5.6 W 33 52 18 28 1011.3 - 0.0
25/11:30am 16.3 8.7 5.8 50 5.1 WSW 35 52 19 28 1011.3 - 0.0
25/11:00am 15.1 11.3 9.1 67 3.1 W 19 39 10 21 1011.1 - 0.0
25/10:48am 13.2 9.4 9.9 80 1.7 W 20 30 11 16 1011.2 - 0.0
25/10:30am 12.8 6.1 9.5 80 1.7 W 35 50 19 27 1011.2 - 0.0
25/10:00am 15.0 8.2 5.3 52 4.6 W 30 39 16 21 1010.6 - 0.0
25/09:30am 14.8 10.5 7.8 63 3.5 WNW 20 32 11 17 1010.4 - 0.0
25/09:00am 13.2 9.0 8.2 71 2.5 W 20 32 11 17 1010.2 1010.1 2.6
25/08:30am 14.0 9.6 7.3 64 3.3 W 20 26 11 14 1009.6 - 2.6
25/08:00am 12.8 10.2 9.5 80 1.7 NW 13 15 7 8 1009.1 - 2.6
25/07:30am 11.3 8.4 8.3 82 1.5 NW 13 17 7 9 1008.6 - 2.6
25/07:00am 9.5 6.1 7.6 88 0.9 NW 15 17 8 9 1008.2 - 2.6
25/06:30am 9.5 7.1 7.0 84 1.2 WNW 9 13 5 7 1007.8 - 2.6
25/06:00am 9.8 7.0 7.1 83 1.3 W 11 13 6 7 1007.6 1007.5 2.6
25/05:30am 9.8 6.7 7.1 83 1.3 W 13 15 7 8 1007.3 - 2.6
25/05:00am 9.9 6.5 7.6 85 1.1 W 15 19 8 10 1007.2 - 2.6
25/04:30am 10.1 6.7 7.8 86 1.1 WNW 15 19 8 10 1007.0 - 2.6
25/04:00am 10.1 7.2 8.0 87 1.0 W 13 17 7 9 1006.9 - 2.6
25/03:30am 10.6 7.0 8.4 86 1.1 W 17 19 9 10 1006.8 - 2.6
25/03:00am 10.9 7.9 9.3 90 0.8 W 15 19 8 10 1006.7 1006.6 2.6
25/02:30am 11.6 8.8 10.0 90 0.8 W 15 19 8 10 1006.4 - 2.6
25/02:00am 12.1 9.2 11.0 93 0.6 W 17 26 9 14 1006.6 - 2.6
25/01:30am 12.3 11.0 11.4 94 0.5 WNW 9 11 5 6 1006.3 - 2.4
25/01:00am 13.0 9.3 11.5 91 0.8 WSW 22 28 12 15 1006.6 - 2.2
25/12:30am 12.9 10.9 11.6 92 0.7 W 13 20 7 11 1006.3 - 2.0
25/12:00am 13.1 10.0 11.6 91 0.8 WSW 19 28 10 15 1005.8 1005.7 2.0
 
Date/Time
CDT
Temp
°C
App
Temp
°C
Dew
Point
Rel
Hum
%
Delta-T
°C
Wind Press
QNH
hPa
Press
MSL
hPa
Rain
since 9 am
mm
Dir
 
Spd
km/h
Gust
km/h
Spd
kts
Gust
kts
24/11:47pm 13.5 9.9 12.0 91 0.8 WSW 22 33 12 18 1005.7 - 2.0
24/11:30pm 14.0 12.6 13.3 96 0.4 NW 13 19 7 10 1005.5 - 2.0
24/11:28pm 14.0 12.6 13.3 96 0.4 NW 13 19 7 10 1005.4 - 1.8
24/11:00pm 14.1 12.3 13.2 94 0.5 WNW 15 19 8 10 1005.3 - 0.6
24/10:30pm 14.1 11.9 13.2 94 0.5 W 17 22 9 12 1005.4 - 0.6
24/10:21pm 14.0 11.7 13.1 94 0.5 W 17 22 9 12 1005.4 - 0.4
24/10:10pm 14.0 11.4 13.3 96 0.4 WSW 19 26 10 14 1005.3 - 0.4
24/10:00pm 14.1 11.6 13.6 97 0.3 W 19 28 10 15 1005.1 - 0.4
24/09:42pm 14.3 11.8 13.4 94 0.5 WNW 19 28 10 15 1005.0 - 0.2
24/09:40pm 14.4 11.7 13.5 94 0.5 WNW 20 28 11 15 1004.9 - 0.2
24/09:34pm 14.4 11.6 13.3 93 0.6 WNW 20 30 11 16 1004.9 - 0.2
24/09:30pm 14.4 11.6 13.3 93 0.6 WNW 20 30 11 16 1004.9 - 0.2
24/09:06pm 15.1 9.6 12.4 84 1.5 W 33 41 18 22 1004.5 - 0.0
24/09:00pm 16.0 10.1 11.2 73 2.6 W 33 41 18 22 1004.4 1004.3 0.0
24/08:30pm 16.5 12.6 12.0 75 2.5 WNW 24 35 13 19 1004.2 - 0.0
24/08:00pm 16.4 12.0 11.8 74 2.5 W 26 32 14 17 1004.0 - 0.0
24/07:30pm 17.8 10.2 10.6 62 3.9 WNW 41 67 22 36 1003.9 - 0.0
24/07:00pm 20.3 13.3 9.9 51 5.6 WNW 37 56 20 30 1003.4 - 0.0
24/06:58pm 20.3 13.3 9.9 51 5.6 WNW 37 56 20 30 1003.4 - 0.0
24/06:43pm 20.2 11.9 9.4 50 5.8 WNW 43 52 23 28 1003.3 - 0.0
24/06:30pm 20.3 12.2 8.5 46 6.2 NW 41 52 22 28 1003.1 - 0.0
24/06:00pm 21.3 13.2 8.7 44 6.7 WNW 41 52 22 28 1003.3 1003.2 0.0
24/05:30pm 21.7 14.7 8.3 42 7.1 WNW 35 50 19 27 1003.4 - 0.0
24/05:17pm 22.6 15.4 7.5 37 7.9 WNW 35 41 19 22 1003.3 - 0.0
24/05:00pm 22.1 14.3 8.3 41 7.3 NW 39 44 21 24 1003.4 - 0.0
24/04:47pm 21.8 14.7 8.2 41 7.2 WNW 35 54 19 29 1003.4 - 0.0
24/04:30pm 23.3 15.7 7.5 36 8.3 WNW 37 50 20 27 1003.4 - 0.0
24/04:12pm 23.1 16.2 6.4 34 8.6 NW 32 50 17 27 1003.5 - 0.0
24/04:00pm 23.0 15.9 6.5 34 8.5 WNW 33 48 18 26 1003.6 - 0.0
24/03:30pm 22.9 15.4 6.1 33 8.6 NW 35 52 19 28 1003.9 - 0.0
24/03:06pm 22.9 16.1 7.5 37 8.0 WNW 33 52 18 28 1004.2 - 0.0
24/03:00pm 22.2 14.9 7.2 38 7.8 WNW 35 48 19 26 1004.4 1004.3 0.0
24/02:39pm 21.5 13.9 7.7 41 7.2 WNW 37 56 20 30 1004.4 - 0.0
24/02:30pm 21.9 14.7 7.8 40 7.4 WNW 35 44 19 24 1004.3 - 0.0
24/02:24pm 21.9 14.7 7.5 39 7.5 W 35 46 19 25 1004.3 - 0.0
24/02:19pm 22.5 13.8 7.6 38 7.8 NW 43 50 23 27 1004.3 - 0.0
24/02:14pm 22.9 15.0 7.7 37 8.0 W 39 46 21 25 1004.3 - 0.0
24/02:03pm 22.1 14.5 7.6 39 7.6 NW 37 48 20 26 1004.4 - 0.0
24/02:00pm 22.1 14.8 7.3 38 7.7 W 35 44 19 24 1004.4 - 0.0
24/01:46pm 22.6 14.7 7.8 38 7.8 WNW 39 57 21 31 1004.6 - 0.0
24/01:30pm 22.1 14.9 7.6 39 7.6 WNW 35 48 19 26 1004.7 - 0.0
24/01:00pm 21.0 14.9 8.3 44 6.7 WNW 30 41 16 22 1005.1 - 0.0
24/12:30pm 19.9 13.4 10.3 54 5.2 NW 35 39 19 21 1005.3 - 0.0
24/12:00pm 20.0 14.6 9.5 50 5.6 NW 28 41 15 22 1005.3 1005.2 0.0

Other Formats:

Comma delimited format used in spreadsheet applications
http://www.bom.gov.au/fwo/IDS60801/IDS60801.94821.axf

JavaScript Object Notation format (JSON) in row-major order
http://www.bom.gov.au/fwo/IDS60801/IDS60801.94821.json